Time;durP1;ratioP1;P1;durP2;ratioP2;P2;SDS_P1;SDS_P2;PMS_P1;PMS_P2;Temp;Humidity;BMP_temperature;BMP_pressure;BME280_temperature;BME280_humidity;BME280_pressure;Samples;Min_cycle;Max_cycle;Signal;HPM_P1;HPM_P2
2022/10/02 00:02:38;;;;;;;4.35;2.03;;;;;;;11.44;97.92;101359.34;4958929;29;20038;-93
2022/10/02 00:05:26;;;;;;;11.20;2.90;;;;;;;11.44;100.00;101370.59;4958793;29;20118;-94
2022/10/02 00:08:04;;;;;;;12.60;2.95;;;;;;;11.47;99.85;101371.44;4959026;29;20070;-94
2022/10/02 00:10:51;;;;;;;6.85;2.40;;;;;;;11.47;99.03;101369.72;4959304;29;20105;-94
2022/10/02 00:13:51;;;;;;;5.30;2.20;;;;;;;11.45;97.47;101374.06;4959227;29;20067;-93
2022/10/02 00:16:31;;;;;;;3.08;1.80;;;;;;;11.41;97.54;101370.63;4977324;28;20027;-95
2022/10/02 00:18:57;;;;;;;5.10;2.08;;;;;;;11.37;97.49;101370.69;4978165;28;20475;-94
2022/10/02 00:21:34;;;;;;;3.63;1.70;;;;;;;11.39;98.93;101376.69;5018957;23;20051;-95
2022/10/02 00:27:40;;;;;;;4.28;2.00;;;;;;;11.37;97.68;101386.28;4958823;29;20050;-94
2022/10/02 00:30:11;;;;;;;4.60;1.98;;;;;;;11.37;97.46;101386.28;4940645;29;20032;-94
2022/10/02 00:33:00;;;;;;;3.00;1.55;;;;;;;11.36;97.28;101379.34;4958654;29;20424;-95
2022/10/02 00:35:32;;;;;;;3.53;1.70;;;;;;;11.35;97.43;101395.81;4957617;29;20039;-94
2022/10/02 00:38:32;;;;;;;2.40;1.50;;;;;;;11.32;97.66;101382.84;4958544;29;20027;-93
2022/10/02 00:41:17;;;;;;;2.38;1.52;;;;;;;11.32;98.09;101394.09;4965261;28;20031;-93
2022/10/02 00:44:19;;;;;;;3.50;1.83;;;;;;;11.33;98.58;101387.16;4977910;28;20047;-94
2022/10/02 00:46:55;;;;;;;7.35;2.10;;;;;;;11.34;98.93;101383.69;4977927;28;20026;-93
2022/10/02 00:49:37;;;;;;;7.70;2.20;;;;;;;11.35;99.81;101388.03;4977727;28;20042;-94
2022/10/02 00:52:34;;;;;;;4.35;1.85;;;;;;;11.36;100.00;101387.16;4977657;28;20038;-93
2022/10/02 00:55:15;;;;;;;7.22;2.08;;;;;;;11.36;99.91;101387.16;4977207;28;20041;-93
2022/10/02 00:58:08;;;;;;;7.47;1.80;;;;;;;11.38;100.00;101390.56;4977523;28;20035;-92
2022/10/02 01:00:33;;;;;;;6.30;2.13;;;;;;;11.39;99.96;101379.31;4977400;28;20058;-93
2022/10/02 01:03:25;;;;;;;5.20;1.87;;;;;;;11.42;99.21;101384.47;4977485;28;20080;-93
2022/10/02 01:05:51;;;;;;;4.20;1.90;;;;;;;11.41;99.60;101383.63;4976304;28;20035;-92
2022/10/02 01:08:16;;;;;;;5.70;1.90;;;;;;;11.41;99.74;101386.22;4977110;28;20019;-94
2022/10/02 01:10:42;;;;;;;4.10;1.87;;;;;;;11.43;100.00;101388.81;4977395;28;20097;-93
2022/10/02 01:13:08;;;;;;;4.23;1.97;;;;;;;11.44;99.98;101385.34;4967697;28;20032;-94
2022/10/02 01:15:43;;;;;;;2.30;1.40;;;;;;;11.42;99.44;101387.06;4958039;29;20053;-93
2022/10/02 01:18:11;;;;;;;4.72;2.00;;;;;;;11.41;100.00;101381.03;4957732;29;20038;-93
2022/10/02 01:20:40;;;;;;;4.68;1.83;;;;;;;11.44;100.00;101382.72;4965785;28;20047;-93
2022/10/02 01:23:18;;;;;;;10.75;2.20;;;;;;;11.47;100.00;101369.72;4976713;28;20582;-93
2022/10/02 01:25:43;;;;;;;6.10;2.08;;;;;;;11.50;100.00;101374.00;4977251;28;20027;-94
2022/10/02 01:28:10;;;;;;;4.80;2.03;;;;;;;11.50;100.00;101366.22;4976826;28;20520;-93
2022/10/02 01:30:39;;;;;;;3.55;1.65;;;;;;;11.53;100.00;101369.63;4977013;28;20038;-94
2022/10/02 01:33:17;;;;;;;7.55;2.00;;;;;;;11.54;100.00;101373.97;4976752;28;20027;-92
2022/10/02 01:35:54;;;;;;;10.40;2.53;;;;;;;11.58;100.00;101377.38;4976986;28;20023;-92
2022/10/02 01:38:32;;;;;;;6.63;1.90;;;;;;;11.58;100.00;101373.06;4976612;28;20077;-92
2022/10/02 01:41:10;;;;;;;5.22;1.90;;;;;;;11.59;100.00;101382.59;4976744;28;20472;-91
2022/10/02 01:43:40;;;;;;;4.90;1.75;;;;;;;11.61;100.00;101376.47;4963748;28;20078;-92
2022/10/02 01:46:50;;;;;;;2.90;1.60;;;;;;;11.62;100.00;101386.88;4957284;29;20476;-92
2022/10/02 01:49:34;;;;;;;5.50;1.95;;;;;;;11.66;100.00;101390.28;4898075;29;20044;-92
2022/10/02 01:52:52;;;;;;;2.33;1.50;;;;;;;11.67;100.00;101386.81;4944908;29;20122;-93
2022/10/02 01:55:23;;;;;;;5.78;1.90;;;;;;;11.66;100.00;101385.94;4957284;29;20039;-94
2022/10/02 01:58:32;;;;;;;7.28;1.80;;;;;;;11.69;100.00;101387.66;4952507;29;20373;-93
2022/10/02 02:01:26;;;;;;;13.30;3.10;;;;;;;11.72;100.00;101390.22;4955848;29;20114;-93
2022/10/02 02:04:17;;;;;;;6.05;2.20;;;;;;;11.73;100.00;101394.53;4956087;29;20083;-94
2022/10/02 02:07:06;;;;;;;6.60;2.10;;;;;;;11.70;100.00;101390.25;4956656;29;20115;-94
2022/10/02 02:09:59;;;;;;;3.75;1.70;;;;;;;11.72;100.00;101395.41;4956369;28;20035;-92
2022/10/02 02:12:35;;;;;;;6.30;1.85;;;;;;;11.73;100.00;101387.63;4956747;29;20158;-94
2022/10/02 02:15:19;;;;;;;6.20;2.05;;;;;;;11.73;100.00;101387.63;4956578;29;20031;-93
2022/10/02 02:17:59;;;;;;;4.13;1.90;;;;;;;11.73;100.00;101381.53;4956023;28;20476;-93
2022/10/02 02:20:46;;;;;;;7.57;1.98;;;;;;;11.78;100.00;101391.88;4955949;29;20055;-93
2022/10/02 02:23:16;;;;;;;5.28;1.83;;;;;;;11.80;100.00;101393.63;4937373;29;20042;-92
2022/10/02 02:26:04;;;;;;;2.95;1.50;;;;;;;11.81;100.00;101389.25;4937562;29;20083;-93
2022/10/02 02:28:31;;;;;;;6.50;1.90;;;;;;;11.84;100.00;101387.47;4937070;29;20038;-94
2022/10/02 02:31:13;;;;;;;5.43;1.80;;;;;;;11.86;100.00;101390.94;4937245;29;20019;-93
2022/10/02 02:34:02;;;;;;;7.07;2.20;;;;;;;11.90;100.00;101382.22;4937126;29;20034;-93
2022/10/02 02:36:39;;;;;;;5.97;1.83;;;;;;;11.93;100.00;101390.88;5022150;23;20043;-93
2022/10/02 02:39:33;;;;;;;6.43;1.95;;;;;;;11.96;100.00;101394.28;4975392;28;20046;-93
2022/10/02 02:42:03;;;;;;;9.20;2.35;;;;;;;11.98;100.00;101396.91;4975591;28;20034;-93
2022/10/02 02:44:49;;;;;;;11.18;2.83;;;;;;;11.98;100.00;101382.16;4975592;28;20038;-94
2022/10/02 02:47:22;;;;;;;9.85;2.60;;;;;;;12.01;100.00;101387.31;4975557;28;20019;-94
2022/10/02 02:50:09;;;;;;;5.95;2.17;;;;;;;12.01;100.00;101387.31;4975605;28;20030;-93
2022/10/02 02:53:05;;;;;;;7.28;2.00;;;;;;;12.03;100.00;101401.16;4975147;28;20113;-93
2022/10/02 02:55:49;;;;;;;4.90;1.75;;;;;;;12.04;100.00;101396.84;4975363;28;20030;-92
2022/10/02 02:58:39;;;;;;;3.58;1.88;;;;;;;12.04;100.00;101399.44;4955938;29;20476;-92
2022/10/02 03:01:05;;;;;;;4.78;2.00;;;;;;;12.04;100.00;101400.28;4955961;28;20035;-92
2022/10/02 03:03:47;;;;;;;3.40;1.90;;;;;;;12.03;100.00;101402.91;4955619;29;20038;-93
2022/10/02 03:06:36;;;;;;;2.78;1.58;;;;;;;12.03;100.00;101406.38;4956020;29;20022;-92
2022/10/02 03:12:08;;;;;;;3.72;2.00;;;;;;;12.03;100.00;101408.97;4956008;29;20054;-91
2022/10/02 03:14:55;;;;;;;4.97;1.90;;;;;;;12.02;100.00;101406.38;4956743;28;20391;-93
2022/10/02 03:18:21;;;;;;;3.22;1.48;;;;;;;11.97;100.00;101401.22;4975454;28;20129;-92
2022/10/02 03:21:10;;;;;;;3.10;1.45;;;;;;;11.95;100.00;101394.28;4934708;29;20039;-92
2022/10/02 03:23:58;;;;;;;3.33;1.48;;;;;;;11.90;100.00;101392.63;4935225;29;20032;-91
2022/10/02 03:26:47;;;;;;;2.15;1.50;;;;;;;11.87;100.00;101404.81;4915794;29;20035;-92
2022/10/02 03:29:23;;;;;;;1.33;1.05;;;;;;;11.86;100.00;101403.09;4946293;28;20039;-93
2022/10/02 03:31:55;;;;;;;3.60;1.70;;;;;;;11.85;100.00;101397.00;4959938;29;20023;-93
2022/10/02 03:34:22;;;;;;;2.35;1.48;;;;;;;11.84;100.00;101400.47;4959858;29;20058;-92
2022/10/02 03:36:57;;;;;;;2.05;1.27;;;;;;;11.86;99.98;101408.28;4958818;29;20043;-92
2022/10/02 03:39:22;;;;;;;1.27;0.80;;;;;;;11.85;99.93;101415.22;4961679;29;20037;-96
2022/10/02 03:41:47;;;;;;;1.00;0.90;;;;;;;11.87;100.00;101415.22;5016199;23;20138;-96
2022/10/02 03:44:13;;;;;;;0.80;0.80;;;;;;;11.86;100.00;101423.88;4986000;28;20038;-96
2022/10/02 03:46:38;;;;;;;0.93;0.90;;;;;;;11.86;100.00;101429.09;4993738;28;20022;-96
2022/10/02 03:49:03;;;;;;;1.87;0.90;;;;;;;11.85;100.00;101420.41;4988133;28;20023;-96
2022/10/02 03:51:29;;;;;;;1.43;1.30;;;;;;;11.82;100.00;101420.44;4981649;28;20058;-96
2022/10/02 03:53:54;;;;;;;5.87;2.03;;;;;;;11.81;100.00;101415.25;4981244;28;20420;-96
2022/10/02 03:56:52;;;;;;;3.10;2.00;;;;;;;11.78;100.00;101416.16;4982072;28;20035;-96
2022/10/02 03:59:32;;;;;;;2.00;1.80;;;;;;;11.74;100.00;101417.06;4996134;23;20054;-96
2022/10/02 04:02:00;;;;;;;2.90;1.77;;;;;;;11.71;100.00;101414.50;4979635;28;20054;-96
2022/10/02 04:04:36;;;;;;;1.67;1.40;;;;;;;11.70;100.00;101416.25;4978512;28;20023;-96
2022/10/02 04:07:06;;;;;;;1.50;1.40;;;;;;;11.69;100.00;101413.69;4978682;28;20030;-95
2022/10/02 04:10:19;;;;;;;2.25;1.17;;;;;;;11.69;100.00;101414.53;4978602;28;20034;-95
2022/10/02 04:12:51;;;;;;;1.23;1.13;;;;;;;11.71;100.00;101417.09;4968672;28;20043;-95
2022/10/02 04:15:29;;;;;;;0.80;0.80;;;;;;;11.72;100.00;101411.03;4978423;28;20101;-96
2022/10/02 04:18:13;;;;;;;1.02;0.82;;;;;;;11.71;100.00;101415.38;4977801;28;20088;-96
2022/10/02 04:20:51;;;;;;;0.52;0.52;;;;;;;11.71;100.00;101414.50;4978431;28;20081;-94
2022/10/02 04:23:19;;;;;;;0.70;0.70;;;;;;;11.72;100.00;101418.81;4978274;28;20061;-95
2022/10/02 04:25:51;;;;;;;1.70;0.82;;;;;;;11.73;100.00;101418.81;4978082;28;20037;-95
2022/10/02 04:28:29;;;;;;;1.30;0.90;;;;;;;11.73;100.00;101410.13;4977669;28;20035;-94
2022/10/02 04:30:54;;;;;;;1.45;1.15;;;;;;;11.74;100.00;101411.88;4977391;28;20094;-94
2022/10/02 04:33:22;;;;;;;1.93;1.30;;;;;;;11.76;100.00;101404.06;4978019;28;20058;-94
2022/10/02 04:36:23;;;;;;;1.52;1.40;;;;;;;11.76;100.00;101406.66;4992831;23;20055;-94
2022/10/02 04:39:18;;;;;;;1.80;1.70;;;;;;;11.75;100.00;101408.38;4977791;28;20031;-92
2022/10/02 04:42:15;;;;;;;3.70;1.90;;;;;;;11.75;100.00;101413.59;4978079;28;20037;-94
2022/10/02 04:45:09;;;;;;;3.75;2.45;;;;;;;11.76;100.00;101422.28;4958164;28;20043;-94
2022/10/02 04:48:10;;;;;;;3.45;2.40;;;;;;;11.76;100.00;101433.53;4958483;29;20027;-94
2022/10/02 04:50:54;;;;;;;6.07;2.42;;;;;;;11.77;100.00;101444.78;4958315;28;20027;-95
2022/10/02 04:53:40;;;;;;;2.78;2.30;;;;;;;11.78;100.00;101457.78;4958119;29;20031;-93
2022/10/02 04:56:30;;;;;;;3.70;2.40;;;;;;;11.78;100.00;101447.38;4958224;29;20031;-95
2022/10/02 04:59:07;;;;;;;3.85;2.47;;;;;;;11.81;100.00;101449.94;4957803;29;20038;-95
2022/10/02 05:02:05;;;;;;;3.03;2.40;;;;;;;11.84;100.00;101454.25;4958028;29;20085;-95
2022/10/02 05:04:50;;;;;;;6.38;2.95;;;;;;;11.84;100.00;101457.69;4957741;28;20035;-94
2022/10/02 05:07:18;;;;;;;5.57;2.72;;;;;;;11.85;100.00;101451.63;4958316;29;20035;-94
2022/10/02 05:09:51;;;;;;;5.65;3.20;;;;;;;11.86;100.00;101458.53;4958245;29;20055;-93
2022/10/02 05:12:23;;;;;;;6.88;3.30;;;;;;;11.87;100.00;101459.44;4959548;28;20023;-92
2022/10/02 05:15:06;;;;;;;3.65;2.50;;;;;;;11.89;100.00;101442.91;4977374;28;20114;-94
2022/10/02 05:17:53;;;;;;;4.10;2.58;;;;;;;11.90;100.00;101447.25;4977144;28;20122;-92
2022/10/02 05:20:50;;;;;;;4.78;3.08;;;;;;;11.90;100.00;101448.97;4976979;28;20030;-91
2022/10/02 05:23:57;;;;;;;3.95;2.90;;;;;;;11.93;100.00;101450.69;4977041;28;20392;-93
2022/10/02 05:27:00;;;;;;;3.80;2.70;;;;;;;11.93;100.00;101454.16;4970905;28;20077;-92
2022/10/02 05:29:36;;;;;;;5.10;2.90;;;;;;;11.92;100.00;101464.56;4976610;28;20030;-91
2022/10/02 05:32:23;;;;;;;;;;;;;;;11.93;100.00;101474.94;4977307;28;20027;-92
2022/10/02 05:35:23;;;;;;;6.18;3.35;;;;;;;11.95;100.00;101473.19;4976534;28;20259;-92
2022/10/02 05:37:56;;;;;;;6.78;3.60;;;;;;;11.98;100.00;101469.72;4968561;28;20039;-94
2022/10/02 05:40:50;;;;;;;9.18;4.45;;;;;;;12.01;100.00;101469.69;4976377;28;20153;-91
2022/10/02 05:43:22;;;;;;;8.23;4.03;;;;;;;12.04;100.00;101482.69;4972370;23;20078;-90
2022/10/02 05:46:22;;;;;;;9.07;3.80;;;;;;;12.05;100.00;101484.38;4957265;29;20031;-93
2022/10/02 05:48:55;;;;;;;6.82;3.60;;;;;;;12.07;100.00;101479.19;4957226;29;20468;-91
2022/10/02 05:51:44;;;;;;;5.50;3.00;;;;;;;12.12;100.00;101478.25;4956778;28;20031;-91
2022/10/02 05:54:41;;;;;;;4.35;3.05;;;;;;;12.15;100.00;101482.53;4956992;29;20035;-92
2022/10/02 05:57:33;;;;;;;10.02;4.30;;;;;;;12.18;100.00;101488.56;4940370;29;20097;-91
2022/10/02 06:00:38;;;;;;;7.05;3.72;;;;;;;12.18;100.00;101482.53;4956933;29;20555;-91
2022/10/02 06:03:21;;;;;;;9.88;4.35;;;;;;;12.19;100.00;101482.50;4916396;29;20604;-91
2022/10/02 06:06:13;;;;;;;6.70;3.60;;;;;;;12.20;100.00;101484.22;4953383;29;20384;-93
2022/10/02 06:08:48;;;;;;;7.88;3.55;;;;;;;12.20;100.00;101480.75;4954878;29;20044;-92
2022/10/02 06:11:22;;;;;;;4.68;3.17;;;;;;;12.22;100.00;101484.19;4956690;28;20087;-92
2022/10/02 06:14:00;;;;;;;9.10;3.80;;;;;;;12.23;100.00;101491.13;4956743;28;20030;-92
2022/10/02 06:16:37;;;;;;;5.57;3.40;;;;;;;12.24;100.00;101497.19;4956581;28;20038;-91
2022/10/02 06:19:13;;;;;;;7.75;3.47;;;;;;;12.25;100.00;101510.19;4956867;28;20528;-96
2022/10/02 06:21:48;;;;;;;4.38;2.90;;;;;;;12.28;100.00;101511.88;4956691;28;20071;-96
2022/10/02 06:24:24;;;;;;;4.53;2.72;;;;;;;12.30;100.00;101515.34;4956263;28;20035;-90
2022/10/02 06:27:08;;;;;;;4.70;2.40;;;;;;;12.32;100.00;101519.66;4956726;29;20046;-91
2022/10/02 06:29:47;;;;;;;4.32;2.50;;;;;;;12.35;100.00;101511.78;4956601;29;20046;-96
2022/10/02 06:32:31;;;;;;;4.65;2.58;;;;;;;12.34;100.00;101520.47;4960120;28;20023;-95
2022/10/02 06:34:57;;;;;;;3.80;2.58;;;;;;;12.36;100.00;101516.13;4961629;28;20066;-96
2022/10/02 06:37:33;;;;;;;3.87;2.20;;;;;;;12.38;100.00;101518.72;4960593;28;20028;-95
2022/10/02 06:40:21;;;;;;;5.38;2.45;;;;;;;12.41;100.00;101526.47;4960254;28;20086;-96
2022/10/02 06:43:29;;;;;;;2.22;1.92;;;;;;;12.42;100.00;101522.16;4963331;28;20051;-96
2022/10/02 06:46:00;;;;;;;3.10;1.90;;;;;;;12.45;100.00;101530.78;4944618;29;20066;-96
2022/10/02 06:48:37;;;;;;;5.78;2.28;;;;;;;12.47;100.00;101530.75;4944575;29;20035;-96
2022/10/02 06:51:15;;;;;;;;;;;;;;;12.48;100.00;101530.75;4938297;29;20044;-95
2022/10/02 06:53:56;;;;;;;4.43;2.10;;;;;;;12.49;100.00;101536.81;4956049;29;19914;-96
2022/10/02 06:56:24;;;;;;;3.67;2.30;;;;;;;12.51;100.00;101548.91;4959420;29;20043;-95
2022/10/02 06:59:10;;;;;;;5.72;2.70;;;;;;;12.52;100.00;101545.44;4960874;28;20186;-96
2022/10/02 07:02:00;;;;;;;9.00;2.90;;;;;;;12.56;100.00;101556.66;4958265;28;20028;-96
2022/10/02 07:04:56;;;;;;;5.35;2.40;;;;;;;12.59;100.00;101563.59;4958297;28;20019;-96
2022/10/02 07:07:53;;;;;;;4.63;2.30;;;;;;;12.61;100.00;101559.25;4942893;29;20036;-96
2022/10/02 07:10:43;;;;;;;5.00;2.10;;;;;;;12.64;100.00;101556.56;4954681;29;20483;-95
2022/10/02 07:13:19;;;;;;;3.15;2.05;;;;;;;12.66;100.00;101558.31;4962266;29;20376;-96
2022/10/02 07:15:50;;;;;;;4.80;2.60;;;;;;;12.70;100.00;101563.44;4970803;28;20027;-96
2022/10/02 07:18:41;;;;;;;3.65;2.30;;;;;;;12.74;100.00;101558.19;5291292;23;20090;-95
2022/10/02 07:21:38;;;;;;;2.90;2.10;;;;;;;12.78;100.00;101564.22;4981219;28;20543;-94
2022/10/02 07:24:31;;;;;;;4.75;2.78;;;;;;;12.82;100.00;101561.56;4978006;28;20053;-92
2022/10/02 07:27:08;;;;;;;6.82;3.08;;;;;;;12.84;100.00;101566.75;4972874;28;20436;-91
2022/10/02 07:30:09;;;;;;;4.00;2.60;;;;;;;12.86;100.00;101562.38;4973685;23;20050;-91
2022/10/02 07:32:47;;;;;;;4.63;2.83;;;;;;;12.89;100.00;101558.88;4975231;28;20039;-91
2022/10/02 07:35:26;;;;;;;2.65;2.22;;;;;;;12.92;100.00;101571.88;4974654;28;20027;-94
2022/10/02 07:38:21;;;;;;;5.10;2.92;;;;;;;12.95;100.00;101579.63;4973654;28;20019;-92
2022/10/02 07:41:16;;;;;;;8.77;4.28;;;;;;;12.96;100.00;101582.22;4974876;28;20023;-88
2022/10/02 07:44:17;;;;;;;5.88;3.30;;;;;;;13.02;100.00;101585.59;4974866;28;20050;-90
2022/10/02 07:47:31;;;;;;;5.85;3.30;;;;;;;13.06;100.00;101577.72;4955642;29;20043;-90
2022/10/02 07:49:59;;;;;;;3.88;3.10;;;;;;;13.12;100.00;101580.25;4925292;28;20039;-89
2022/10/02 07:52:40;;;;;;;3.53;2.80;;;;;;;13.18;100.00;101584.53;4955551;28;20096;-89
2022/10/02 07:55:14;;;;;;;3.83;3.03;;;;;;;13.24;100.00;101586.19;4964142;28;20035;-90
2022/10/02 07:57:48;;;;;;;7.97;3.88;;;;;;;13.31;100.00;101581.75;4975855;28;20041;-96
2022/10/02 08:00:16;;;;;;;8.88;4.75;;;;;;;13.35;100.00;101579.06;4976278;28;20039;-93
2022/10/02 08:02:50;;;;;;;7.45;4.43;;;;;;;13.44;100.00;101592.00;4972920;28;20162;-93
2022/10/02 08:05:19;;;;;;;10.70;5.50;;;;;;;13.50;100.00;101595.41;4972899;28;20106;-92
2022/10/02 08:07:49;;;;;;;8.93;4.80;;;;;;;13.57;100.00;101603.06;4972500;28;20030;-92
2022/10/02 08:10:19;;;;;;;6.70;4.40;;;;;;;13.64;100.00;101601.25;4972870;28;20023;-92
2022/10/02 08:13:01;;;;;;;7.97;4.53;;;;;;;13.65;100.00;101597.75;4973905;28;20113;-92
2022/10/02 08:15:33;;;;;;;8.13;4.38;;;;;;;13.72;100.00;101616.78;4976480;28;20369;-93
2022/10/02 08:18:07;;;;;;;6.47;4.28;;;;;;;13.73;100.00;101618.50;4977427;28;20587;-92
2022/10/02 08:20:45;;;;;;;8.45;4.20;;;;;;;13.77;100.00;101628.00;4977762;28;20030;-93
2022/10/02 08:23:21;;;;;;;6.65;3.88;;;;;;;13.81;100.00;101618.38;4978185;28;20027;-91
2022/10/02 08:26:05;;;;;;;5.40;3.58;;;;;;;13.85;100.00;101625.25;4978140;28;20026;-91
2022/10/02 08:28:31;;;;;;;3.97;2.90;;;;;;;13.90;100.00;101631.28;4977771;28;20027;-92
2022/10/02 08:30:57;;;;;;;7.10;3.87;;;;;;;13.93;100.00;101643.41;4977324;28;20051;-94
2022/10/02 08:33:23;;;;;;;8.50;4.07;;;;;;;13.95;100.00;101641.63;4977929;28;20089;-93
2022/10/02 08:36:07;;;;;;;6.27;3.70;;;;;;;14.00;100.00;101634.59;4977432;28;20412;-93
2022/10/02 08:38:35;;;;;;;5.32;3.35;;;;;;;14.05;100.00;101632.75;4977394;28;20082;-94
2022/10/02 08:41:09;;;;;;;4.28;3.05;;;;;;;14.07;100.00;101635.34;4977992;28;20038;-94
2022/10/02 08:44:12;;;;;;;9.32;4.72;;;;;;;14.08;100.00;101648.38;4977558;28;20037;-92
2022/10/02 08:46:57;;;;;;;8.13;4.10;;;;;;;14.09;100.00;101651.81;4977018;28;20034;-92
2022/10/02 08:49:40;;;;;;;7.82;4.10;;;;;;;14.12;100.00;101649.16;4977805;28;20034;-93
2022/10/02 08:52:12;;;;;;;5.55;3.60;;;;;;;14.14;100.00;101652.63;4978624;28;20380;-92
2022/10/02 08:55:03;;;;;;;5.85;3.70;;;;;;;14.19;100.00;101669.06;4977603;28;20379;-91
2022/10/02 08:57:53;;;;;;;3.65;2.83;;;;;;;14.24;100.00;101654.19;4977171;28;20041;-93
2022/10/02 09:00:50;;;;;;;3.30;2.70;;;;;;;14.29;100.00;101654.09;4977416;28;20031;-91
2022/10/02 09:03:53;;;;;;;2.97;2.67;;;;;;;14.35;100.00;101674.91;4954985;28;20053;-91
2022/10/02 09:07:09;;;;;;;4.82;2.90;;;;;;;14.40;100.00;101678.25;4976956;28;20538;-92
2022/10/02 09:10:16;;;;;;;3.22;2.40;;;;;;;14.41;100.00;101672.16;4965339;28;20078;-92
2022/10/02 09:12:57;;;;;;;2.35;2.15;;;;;;;14.42;100.00;101679.09;4977250;28;20027;-94
2022/10/02 09:15:52;;;;;;;5.93;3.33;;;;;;;14.44;100.00;101676.47;4977454;28;20035;-91
2022/10/02 09:18:40;;;;;;;5.43;2.87;;;;;;;14.46;100.00;101677.28;4977386;28;20050;-91
2022/10/02 09:21:15;;;;;;;3.28;2.50;;;;;;;14.51;100.00;101678.94;4957562;28;20287;-92
2022/10/02 09:24:14;;;;;;;4.20;2.67;;;;;;;14.61;100.00;101683.97;4957803;29;20034;-92
2022/10/02 09:26:52;;;;;;;3.35;2.28;;;;;;;14.74;100.00;101679.44;4956332;28;20290;-91
2022/10/02 09:29:50;;;;;;;2.00;1.90;;;;;;;14.89;100.00;101671.28;4957795;29;20078;-92
2022/10/02 09:32:59;;;;;;;5.10;2.42;;;;;;;14.98;100.00;101673.69;4957504;29;20417;-91
2022/10/02 09:35:44;;;;;;;3.67;2.10;;;;;;;15.02;100.00;101682.38;4957316;29;20583;-92
2022/10/02 09:38:43;;;;;;;3.33;2.20;;;;;;;15.04;100.00;101683.16;4976076;28;20298;-91
2022/10/02 09:41:14;;;;;;;2.78;2.00;;;;;;;15.05;100.00;101695.34;4976685;28;20535;-90
2022/10/02 09:43:50;;;;;;;4.20;2.20;;;;;;;15.06;100.00;101694.47;4976726;28;20034;-92
2022/10/02 09:47:15;;;;;;;2.42;1.95;;;;;;;15.07;100.00;101703.19;4976337;28;20078;-92
2022/10/02 09:50:02;;;;;;;2.95;1.73;;;;;;;15.14;100.00;101702.16;4976316;28;20119;-92
2022/10/02 09:52:40;;;;;;;5.45;1.98;;;;;;;15.20;99.31;101699.38;4976495;28;20083;-92
2022/10/02 09:55:44;;;;;;;3.83;1.80;;;;;;;15.20;99.68;101694.16;4976455;28;20034;-92
2022/10/02 09:58:34;;;;;;;1.65;1.55;;;;;;;15.22;99.82;101702.84;4976243;28;20467;-92
2022/10/02 10:01:11;;;;;;;1.50;1.40;;;;;;;15.30;99.83;101705.31;4976202;28;20034;-91
2022/10/02 10:03:58;;;;;;;7.00;2.40;;;;;;;15.32;98.50;101705.25;4976338;28;20070;-93
2022/10/02 10:06:51;;;;;;;2.92;1.80;;;;;;;15.50;99.46;101699.66;4976533;28;20117;-93
2022/10/02 10:09:39;;;;;;;4.70;1.90;;;;;;;15.65;99.17;101701.06;4975323;28;20031;-92
2022/10/02 10:12:54;;;;;;;2.88;1.38;;;;;;;15.71;96.19;101706.13;4975608;28;20034;-93
2022/10/02 10:16:00;;;;;;;6.85;1.90;;;;;;;15.75;96.65;101706.94;4916911;29;20040;-93
2022/10/02 10:18:42;;;;;;;3.60;1.80;;;;;;;15.84;97.68;101706.75;4957052;28;20031;-92
2022/10/02 10:21:55;;;;;;;4.75;1.80;;;;;;;15.99;95.92;101716.00;4956449;28;20028;-93
2022/10/02 10:24:52;;;;;;;5.40;2.00;;;;;;;16.06;95.12;101720.16;4952601;28;20039;-91
2022/10/02 10:27:30;;;;;;;12.10;2.67;;;;;;;16.11;94.03;101733.16;4974738;28;20035;-90
2022/10/02 10:30:20;;;;;;;4.38;1.70;;;;;;;16.08;95.26;101735.88;4974805;28;20055;-88
2022/10/02 10:32:55;;;;;;;3.60;1.70;;;;;;;16.26;94.90;101734.56;4975667;28;20030;-91
2022/10/02 10:36:05;;;;;;;6.10;1.90;;;;;;;16.41;91.16;101741.16;4975458;28;20498;-90
2022/10/02 10:38:59;;;;;;;5.00;1.75;;;;;;;16.43;92.81;101743.72;4970746;28;20050;-91
2022/10/02 10:41:46;;;;;;;2.25;1.40;;;;;;;16.43;94.11;101748.97;4975436;28;20038;-90
2022/10/02 10:44:32;;;;;;;3.35;1.42;;;;;;;16.36;93.16;101750.88;4975348;28;20110;-90
2022/10/02 10:47:22;;;;;;;1.40;1.17;;;;;;;16.25;91.54;101745.94;4985609;23;20054;-91
2022/10/02 10:50:07;;;;;;;5.28;1.38;;;;;;;16.17;92.79;101760.94;4974762;28;20399;-89
2022/10/02 10:53:11;;;;;;;1.15;1.05;;;;;;;16.12;92.27;101758.44;4974152;28;20122;-87
2022/10/02 10:56:07;;;;;;;2.90;1.40;;;;;;;16.10;91.98;101754.16;4975015;28;20494;-90
2022/10/02 10:58:51;;;;;;;2.13;1.27;;;;;;;16.02;88.86;101757.81;4974954;28;20031;-91
2022/10/02 11:01:19;;;;;;;3.97;1.40;;;;;;;16.00;90.83;101743.03;4974867;28;20030;-90
2022/10/02 11:03:59;;;;;;;2.95;1.42;;;;;;;16.06;91.75;101753.38;4978022;28;20419;-90
2022/10/02 11:06:34;;;;;;;1.30;1.20;;;;;;;16.12;91.22;101752.34;4975083;28;20041;-90
2022/10/02 11:09:14;;;;;;;1.85;1.00;;;;;;;16.14;88.48;101759.28;4975055;28;20027;-91
2022/10/02 11:12:15;;;;;;;1.67;1.20;;;;;;;16.19;91.14;101754.78;4975217;28;20038;-88
2022/10/02 11:15:12;;;;;;;1.83;1.02;;;;;;;16.19;87.30;101751.31;4975150;28;20062;-91
2022/10/02 11:17:59;;;;;;;4.28;1.40;;;;;;;16.27;90.66;101759.81;4975205;28;20046;-89
2022/10/02 11:20:49;;;;;;;1.77;1.00;;;;;;;16.40;91.29;101756.91;4975037;28;20737;-90
2022/10/02 11:23:39;;;;;;;1.92;1.20;;;;;;;16.48;88.89;101760.22;4974817;28;20042;-88
2022/10/02 11:26:16;;;;;;;2.20;1.23;;;;;;;16.49;90.65;101765.41;4974789;28;20031;-91
2022/10/02 11:29:15;;;;;;;0.93;0.77;;;;;;;16.54;91.02;101765.28;4975294;28;20042;-89
2022/10/02 11:32:15;;;;;;;4.88;1.20;;;;;;;16.52;89.40;101767.06;4975029;28;20050;-89
2022/10/02 11:35:18;;;;;;;5.78;1.63;;;;;;;16.42;88.06;101770.81;4974472;28;20110;-89
2022/10/02 11:38:25;;;;;;;4.70;1.50;;;;;;;16.32;88.75;101773.69;4974601;28;20033;-89
2022/10/02 11:41:28;;;;;;;1.77;1.20;;;;;;;16.24;89.43;101780.00;4970861;28;20127;-89
2022/10/02 11:44:03;;;;;;;2.58;1.02;;;;;;;16.15;89.47;101776.72;4974358;28;20037;-90
2022/10/02 11:46:47;;;;;;;3.92;1.50;;;;;;;16.03;87.70;101780.50;4974316;28;20047;-89
2022/10/02 11:50:01;;;;;;;2.38;1.50;;;;;;;15.96;89.39;101780.66;4974386;28;20034;-89
2022/10/02 11:52:56;;;;;;;3.40;1.38;;;;;;;15.90;89.89;101779.03;4978153;28;20027;-88
2022/10/02 11:55:43;;;;;;;1.90;1.13;;;;;;;15.86;89.11;101786.09;4978495;28;20034;-90
2022/10/02 11:58:15;;;;;;;2.50;1.40;;;;;;;15.84;90.16;101782.66;4978139;28;20046;-90
2022/10/02 12:01:17;;;;;;;1.92;1.23;;;;;;;15.87;90.60;101779.97;4978566;28;20085;-91
2022/10/02 12:04:20;;;;;;;3.83;1.27;;;;;;;15.86;90.04;101777.38;4978097;28;20464;-89
2022/10/02 12:07:17;;;;;;;1.13;0.88;;;;;;;15.91;90.38;101778.16;4978199;28;20034;-89
2022/10/02 12:10:11;;;;;;;1.27;0.80;;;;;;;16.04;90.98;101786.56;4978304;28;20506;-90
2022/10/02 12:13:04;;;;;;;1.75;0.90;;;;;;;16.12;90.75;101791.63;4977872;28;20035;-90
2022/10/02 12:16:12;;;;;;;1.40;0.90;;;;;;;16.18;90.13;101787.13;4977961;28;20022;-90
2022/10/02 12:19:02;;;;;;;0.75;0.75;;;;;;;16.26;90.64;101797.41;4977759;28;20537;-92
2022/10/02 12:28:27;;;;;;;3.55;1.50;;;;;;;16.14;86.00;101808.19;4977948;28;20070;-91
2022/10/02 12:31:25;;;;;;;5.90;1.60;;;;;;;16.10;85.28;101811.75;4977396;28;20098;-89
2022/10/02 12:34:03;;;;;;;3.28;1.10;;;;;;;16.06;87.41;101806.59;4977614;28;20103;-91
2022/10/02 12:36:46;;;;;;;2.08;0.98;;;;;;;16.09;87.87;101805.66;4977626;28;20031;-91
2022/10/02 12:39:50;;;;;;;2.42;1.17;;;;;;;16.15;86.34;101805.50;4977526;28;20031;-91
2022/10/02 12:42:44;;;;;;;1.67;1.10;;;;;;;16.23;84.60;101799.22;4977285;28;20085;-90
2022/10/02 12:45:30;;;;;;;1.83;0.90;;;;;;;16.30;86.00;101800.81;4976755;28;20026;-89
2022/10/02 12:48:32;;;;;;;1.05;0.88;;;;;;;16.35;85.68;101805.06;4976692;28;20488;-89
2022/10/02 12:51:28;;;;;;;1.27;0.80;;;;;;;16.40;84.13;101812.78;4976856;28;20031;-90
2022/10/02 12:54:44;;;;;;;1.08;0.60;;;;;;;16.42;85.76;101808.38;4976786;28;20039;-89